Time,TemperatureF,DewpointF,PressureIn,WindDirection,WindDirectionDegrees,WindSpeedMPH,WindSpeedGustMPH,Humidity,HourlyPrecipIn,Conditions,Clouds,dailyrainin,SolarRadiationWatts/m^2,SoftwareType,DateUTC
2013-08-02 00:01:00,69.8,69.2,29.81,NW,319,0.0,0.0,98,0.00,,,0.98,0,LWC V2.00 B2112,2013-08-02 04:01:00,
2013-08-02 00:06:00,69.8,69.2,29.81,NW,319,0.0,0.0,98,0.00,,,0.00,0,LWC V2.00 B2112,2013-08-02 04:06:00,
2013-08-02 00:11:00,69.8,69.2,29.81,NW,319,0.0,0.0,98,0.00,,,0.00,0,LWC V2.00 B2112,2013-08-02 04:11:00,
2013-08-02 00:16:00,69.8,69.2,29.81,NW,319,0.0,0.0,98,0.00,,,0.00,0,LWC V2.00 B2112,2013-08-02 04:16:00,
2013-08-02 00:21:00,69.8,69.2,29.81,NW,319,0.0,0.0,98,0.00,,,0.00,0,LWC V2.00 B2112,2013-08-02 04:21:00,
2013-08-02 00:26:00,69.8,69.2,29.81,NW,319,0.0,0.0,98,0.00,,,0.00,0,LWC V2.00 B2112,2013-08-02 04:26:00,
2013-08-02 00:31:00,69.8,69.2,29.81,NW,319,0.0,0.0,98,0.00,,,0.00,0,LWC V2.00 B2112,2013-08-02 04:31:00,
2013-08-02 00:36:00,69.8,69.2,29.81,NW,319,0.0,0.0,98,0.00,,,0.00,0,LWC V2.00 B2112,2013-08-02 04:36:00,
2013-08-02 00:41:00,69.9,69.3,29.81,NW,319,0.0,0.0,98,0.00,,,0.00,0,LWC V2.00 B2112,2013-08-02 04:41:00,
2013-08-02 00:46:00,69.9,69.3,29.81,NW,319,0.0,0.0,98,0.00,,,0.00,0,LWC V2.00 B2112,2013-08-02 04:46:00,
2013-08-02 00:51:00,69.9,69.3,29.81,NW,319,0.0,0.0,98,0.00,,,0.00,0,LWC V2.00 B2112,2013-08-02 04:51:00,
2013-08-02 00:56:00,69.9,69.3,29.81,NW,319,0.0,0.0,98,0.00,,,0.00,0,LWC V2.00 B2112,2013-08-02 04:56:00,
2013-08-02 01:01:00,69.9,69.3,29.81,NW,319,0.0,0.0,98,0.00,,,0.00,0,LWC V2.00 B2112,2013-08-02 05:01:00,
2013-08-02 01:06:00,70.0,69.4,29.81,NW,319,0.0,0.0,98,0.00,,,0.00,0,LWC V2.00 B2112,2013-08-02 05:06:00,
2013-08-02 01:11:00,70.0,69.4,29.80,NW,319,0.0,0.0,98,0.00,,,0.00,0,LWC V2.00 B2112,2013-08-02 05:11:00,
2013-08-02 01:16:00,70.0,69.4,29.80,NW,319,0.0,0.0,98,0.00,,,0.00,0,LWC V2.00 B2112,2013-08-02 05:16:00,
2013-08-02 01:21:00,70.0,69.4,29.80,NW,319,0.0,0.0,98,0.00,,,0.00,0,LWC V2.00 B2112,2013-08-02 05:21:00,
2013-08-02 01:26:00,70.0,69.4,29.80,NW,319,0.0,0.0,98,0.00,,,0.00,0,LWC V2.00 B2112,2013-08-02 05:26:00,
2013-08-02 01:31:00,69.9,69.3,29.80,NW,319,0.0,0.0,98,0.00,,,0.00,0,LWC V2.00 B2112,2013-08-02 05:31:00,
2013-08-02 01:36:00,69.9,69.3,29.79,NW,319,0.0,0.0,98,0.00,,,0.00,0,LWC V2.00 B2112,2013-08-02 05:36:00,
2013-08-02 01:41:00,69.9,69.3,29.79,NW,319,0.0,0.0,98,0.00,,,0.00,0,LWC V2.00 B2112,2013-08-02 05:41:00,
2013-08-02 01:46:00,69.7,69.1,29.79,NW,318,0.0,0.0,98,0.00,,,0.00,0,LWC V2.00 B2112,2013-08-02 05:46:00,
2013-08-02 01:51:00,69.6,69.0,29.79,NW,319,0.0,0.0,98,0.00,,,0.00,0,LWC V2.00 B2112,2013-08-02 05:51:00,
2013-08-02 01:56:00,69.5,68.9,29.78,NW,319,0.0,0.0,98,0.00,,,0.00,0,LWC V2.00 B2112,2013-08-02 05:56:00,
2013-08-02 02:01:00,69.4,68.8,29.78,NW,319,0.0,0.0,98,0.00,,,0.00,0,LWC V2.00 B2112,2013-08-02 06:01:00,
2013-08-02 02:06:00,69.2,68.6,29.78,NW,319,0.0,0.0,98,0.00,,,0.00,0,LWC V2.00 B2112,2013-08-02 06:06:00,
2013-08-02 02:11:00,69.1,68.5,29.78,NW,319,0.0,0.0,98,0.00,,,0.00,0,LWC V2.00 B2112,2013-08-02 06:11:00,
2013-08-02 02:16:00,69.0,68.4,29.78,NW,319,0.0,0.0,98,0.00,,,0.00,0,LWC V2.00 B2112,2013-08-02 06:16:00,
2013-08-02 02:21:00,68.8,68.2,29.78,NW,319,0.0,0.0,98,0.00,,,0.00,0,LWC V2.00 B2112,2013-08-02 06:21:00,
2013-08-02 02:26:00,68.7,68.1,29.78,NW,319,0.0,0.0,98,0.00,,,0.00,0,LWC V2.00 B2112,2013-08-02 06:26:00,
2013-08-02 02:31:00,68.6,68.0,29.77,NW,319,0.0,0.0,98,0.00,,,0.00,0,LWC V2.00 B2112,2013-08-02 06:31:00,
2013-08-02 02:36:00,68.4,67.8,29.77,NW,319,0.0,0.0,98,0.00,,,0.00,0,LWC V2.00 B2112,2013-08-02 06:36:00,
2013-08-02 02:41:00,68.3,67.7,29.77,NW,319,0.0,0.0,98,0.00,,,0.00,0,LWC V2.00 B2112,2013-08-02 06:41:00,
2013-08-02 02:46:00,68.1,67.5,29.77,NW,319,0.0,0.0,98,0.00,,,0.00,0,LWC V2.00 B2112,2013-08-02 06:46:00,
2013-08-02 02:51:00,67.9,67.3,29.77,NW,319,0.0,0.0,98,0.00,,,0.00,0,LWC V2.00 B2112,2013-08-02 06:51:00,
2013-08-02 02:56:00,67.8,67.2,29.77,NW,319,0.0,0.0,98,0.00,,,0.00,0,LWC V2.00 B2112,2013-08-02 06:56:00,
2013-08-02 03:01:00,67.7,67.1,29.77,NW,319,0.0,0.0,98,0.00,,,0.00,0,LWC V2.00 B2112,2013-08-02 07:01:00,
2013-08-02 03:06:00,67.6,67.0,29.77,NW,319,0.0,0.0,98,0.00,,,0.00,0,LWC V2.00 B2112,2013-08-02 07:06:00,
2013-08-02 03:11:00,67.5,66.9,29.77,NW,319,0.0,0.0,98,0.00,,,0.00,0,LWC V2.00 B2112,2013-08-02 07:11:00,
2013-08-02 03:16:00,67.4,66.8,29.77,NW,319,0.0,0.0,98,0.00,,,0.00,0,LWC V2.00 B2112,2013-08-02 07:16:00,
2013-08-02 03:21:00,67.3,66.7,29.77,NW,319,0.0,0.0,98,0.00,,,0.00,0,LWC V2.00 B2112,2013-08-02 07:21:00,
2013-08-02 03:26:00,67.2,66.6,29.77,NW,319,0.0,0.0,98,0.00,,,0.00,0,LWC V2.00 B2112,2013-08-02 07:26:00,
2013-08-02 03:31:00,67.1,66.5,29.78,NW,319,0.0,0.0,98,0.00,,,0.00,0,LWC V2.00 B2112,2013-08-02 07:31:00,
2013-08-02 03:36:00,67.0,66.4,29.77,NW,319,0.0,0.0,98,0.00,,,0.00,0,LWC V2.00 B2112,2013-08-02 07:36:00,
2013-08-02 03:41:00,66.9,66.3,29.78,NW,319,0.0,0.0,98,0.00,,,0.00,0,LWC V2.00 B2112,2013-08-02 07:41:00,
2013-08-02 03:46:00,66.8,66.2,29.77,NW,319,0.0,0.0,98,0.00,,,0.00,0,LWC V2.00 B2112,2013-08-02 07:46:00,
2013-08-02 03:51:00,66.8,66.2,29.78,NW,319,0.0,0.0,98,0.00,,,0.00,0,LWC V2.00 B2112,2013-08-02 07:51:00,
2013-08-02 03:56:00,66.7,66.1,29.78,NW,319,0.0,0.0,98,0.00,,,0.00,0,LWC V2.00 B2112,2013-08-02 07:56:00,
2013-08-02 04:01:00,66.7,66.1,29.78,NW,319,0.0,0.0,98,0.00,,,0.00,0,LWC V2.00 B2112,2013-08-02 08:01:00,
2013-08-02 04:06:00,66.7,66.1,29.78,NW,319,0.0,0.0,98,0.00,,,0.00,0,LWC V2.00 B2112,2013-08-02 08:06:00,
2013-08-02 04:11:00,66.6,66.0,29.78,NW,319,0.0,0.0,98,0.00,,,0.00,0,LWC V2.00 B2112,2013-08-02 08:11:00,
2013-08-02 04:16:00,66.6,66.0,29.78,NW,319,0.0,0.0,98,0.00,,,0.00,0,LWC V2.00 B2112,2013-08-02 08:16:00,
2013-08-02 04:21:00,66.6,66.0,29.78,NW,319,0.0,0.0,98,0.00,,,0.00,0,LWC V2.00 B2112,2013-08-02 08:21:00,
2013-08-02 04:26:00,66.5,65.9,29.79,NW,319,0.0,0.0,98,0.00,,,0.00,0,LWC V2.00 B2112,2013-08-02 08:26:00,
2013-08-02 04:31:00,66.5,65.9,29.79,NW,319,0.0,0.0,98,0.00,,,0.00,0,LWC V2.00 B2112,2013-08-02 08:31:00,
2013-08-02 04:36:00,66.4,65.8,29.79,NW,319,0.0,0.0,98,0.00,,,0.00,0,LWC V2.00 B2112,2013-08-02 08:36:00,
2013-08-02 04:41:00,66.4,65.8,29.79,NW,319,0.0,0.0,98,0.00,,,0.00,0,LWC V2.00 B2112,2013-08-02 08:41:00,
2013-08-02 04:46:00,66.3,65.7,29.79,NW,319,0.0,0.0,98,0.00,,,0.00,0,LWC V2.00 B2112,2013-08-02 08:46:00,
2013-08-02 04:51:00,66.3,65.7,29.79,NW,319,0.0,0.0,98,0.00,,,0.00,0,LWC V2.00 B2112,2013-08-02 08:51:00,
2013-08-02 04:56:00,66.2,65.6,29.79,NW,319,0.0,0.0,98,0.00,,,0.00,0,LWC V2.00 B2112,2013-08-02 08:56:00,
2013-08-02 05:01:00,66.2,65.6,29.80,NW,319,0.0,0.0,98,0.00,,,0.00,0,LWC V2.00 B2112,2013-08-02 09:01:00,
2013-08-02 05:06:00,66.1,65.5,29.80,NW,319,0.0,0.0,98,0.00,,,0.00,0,LWC V2.00 B2112,2013-08-02 09:06:00,
2013-08-02 05:11:00,66.0,65.4,29.80,NW,319,0.0,0.0,98,0.00,,,0.00,0,LWC V2.00 B2112,2013-08-02 09:11:00,
2013-08-02 05:16:00,65.9,65.3,29.80,NW,319,0.0,0.0,98,0.00,,,0.00,0,LWC V2.00 B2112,2013-08-02 09:16:00,
2013-08-02 05:21:00,65.8,65.2,29.81,NW,319,0.0,0.0,98,0.00,,,0.00,0,LWC V2.00 B2112,2013-08-02 09:21:00,
2013-08-02 05:26:00,65.6,65.0,29.81,NW,319,0.0,0.0,98,0.00,,,0.00,0,LWC V2.00 B2112,2013-08-02 09:26:00,
2013-08-02 05:31:00,65.5,64.9,29.81,NW,319,0.0,0.0,98,0.00,,,0.00,0,LWC V2.00 B2112,2013-08-02 09:31:00,
2013-08-02 05:36:00,65.4,64.8,29.82,NW,319,0.0,0.0,98,0.00,,,0.00,0,LWC V2.00 B2112,2013-08-02 09:36:00,
2013-08-02 05:41:00,65.2,64.6,29.82,NW,319,0.0,0.0,98,0.00,,,0.00,0,LWC V2.00 B2112,2013-08-02 09:41:00,
2013-08-02 05:46:00,65.2,64.6,29.82,NW,319,0.0,0.0,98,0.00,,,0.00,0,LWC V2.00 B2112,2013-08-02 09:46:00,
2013-08-02 05:51:00,65.0,64.4,29.82,NW,319,0.0,0.0,98,0.00,,,0.00,0,LWC V2.00 B2112,2013-08-02 09:51:00,
2013-08-02 05:56:00,64.9,64.3,29.83,NW,319,0.0,0.0,98,0.00,,,0.00,0,LWC V2.00 B2112,2013-08-02 09:56:00,
2013-08-02 06:01:00,64.9,64.3,29.83,NW,319,0.0,0.0,98,0.00,,,0.00,0,LWC V2.00 B2112,2013-08-02 10:01:00,
2013-08-02 06:06:00,64.8,64.2,29.83,NW,319,0.0,0.0,98,0.00,,,0.00,0,LWC V2.00 B2112,2013-08-02 10:06:00,
2013-08-02 06:11:00,64.7,64.1,29.83,NW,319,0.0,0.0,98,0.00,,,0.00,0,LWC V2.00 B2112,2013-08-02 10:11:00,
2013-08-02 06:16:00,64.6,64.0,29.83,NW,319,0.0,0.0,98,0.00,,,0.00,0,LWC V2.00 B2112,2013-08-02 10:16:00,
2013-08-02 06:21:00,64.5,63.9,29.83,NW,319,0.0,0.0,98,0.00,,,0.00,0,LWC V2.00 B2112,2013-08-02 10:21:00,
2013-08-02 06:26:00,64.4,63.8,29.83,NW,319,0.0,0.0,98,0.00,,,0.00,0,LWC V2.00 B2112,2013-08-02 10:26:00,
2013-08-02 06:31:00,64.3,63.7,29.83,NW,319,0.0,0.0,98,0.00,,,0.00,0,LWC V2.00 B2112,2013-08-02 10:31:00,
2013-08-02 06:36:00,64.4,63.8,29.84,NW,319,0.0,0.0,98,0.00,,,0.00,0,LWC V2.00 B2112,2013-08-02 10:36:00,
2013-08-02 06:41:00,64.4,63.8,29.84,NW,318,0.0,0.0,98,0.00,,,0.00,0,LWC V2.00 B2112,2013-08-02 10:41:00,
2013-08-02 06:46:00,64.4,63.8,29.84,NW,319,0.0,0.0,98,0.00,,,0.00,0,LWC V2.00 B2112,2013-08-02 10:46:00,
2013-08-02 06:51:00,64.5,63.9,29.84,NW,319,0.0,0.0,98,0.00,,,0.00,5,LWC V2.00 B2112,2013-08-02 10:51:00,
2013-08-02 06:56:00,64.5,63.9,29.84,NW,319,0.0,0.0,98,0.00,,,0.00,5,LWC V2.00 B2112,2013-08-02 10:56:00,
2013-08-02 07:01:00,64.5,63.9,29.84,NW,319,0.0,0.0,98,0.00,,,0.00,5,LWC V2.00 B2112,2013-08-02 11:01:00,
2013-08-02 07:06:00,64.6,64.0,29.84,NW,319,0.0,0.0,98,0.00,,,0.00,5,LWC V2.00 B2112,2013-08-02 11:06:00,
2013-08-02 07:11:00,64.7,64.4,29.85,NW,319,0.0,0.0,99,0.00,,,0.00,5,LWC V2.00 B2112,2013-08-02 11:11:00,
2013-08-02 07:16:00,64.8,64.5,29.85,NW,319,0.0,0.0,99,0.00,,,0.00,9,LWC V2.00 B2112,2013-08-02 11:16:00,
2013-08-02 07:21:00,64.9,64.6,29.85,NW,319,0.0,0.0,99,0.00,,,0.00,7,LWC V2.00 B2112,2013-08-02 11:21:00,
2013-08-02 07:26:00,65.0,64.7,29.85,NW,319,0.0,0.0,99,0.00,,,0.00,53,LWC V2.00 B2112,2013-08-02 11:26:00,
2013-08-02 07:31:00,65.1,64.5,29.85,NW,319,0.0,0.0,98,0.00,,,0.00,7,LWC V2.00 B2112,2013-08-02 11:31:00,
2013-08-02 07:36:00,65.3,64.7,29.85,NW,319,0.0,0.0,98,0.00,,,0.00,9,LWC V2.00 B2112,2013-08-02 11:36:00,
2013-08-02 07:41:00,65.4,65.1,29.85,NW,319,0.0,0.0,99,0.00,,,0.00,9,LWC V2.00 B2112,2013-08-02 11:41:00,
2013-08-02 07:46:00,65.5,65.2,29.85,NW,319,0.0,0.0,99,0.00,,,0.00,9,LWC V2.00 B2112,2013-08-02 11:46:00,
2013-08-02 07:51:00,65.6,65.3,29.85,NW,319,0.0,0.0,99,0.00,,,0.00,12,LWC V2.00 B2112,2013-08-02 11:51:00,
2013-08-02 07:56:00,65.7,65.4,29.85,NW,319,0.0,0.0,99,0.00,,,0.00,14,LWC V2.00 B2112,2013-08-02 11:56:00,
2013-08-02 08:01:00,65.8,65.5,29.85,NW,319,0.0,0.0,99,0.00,,,0.00,12,LWC V2.00 B2112,2013-08-02 12:01:00,
2013-08-02 08:06:00,65.9,65.6,29.85,NW,319,0.0,0.0,99,0.00,,,0.00,12,LWC V2.00 B2112,2013-08-02 12:06:00,
2013-08-02 08:11:00,66.1,65.8,29.86,NW,319,0.0,0.0,99,0.00,,,0.00,14,LWC V2.00 B2112,2013-08-02 12:11:00,
2013-08-02 08:16:00,66.2,65.9,29.86,NW,319,0.0,0.0,99,0.00,,,0.00,12,LWC V2.00 B2112,2013-08-02 12:16:00,
2013-08-02 08:21:00,66.2,65.9,29.86,NW,319,0.0,0.0,99,0.00,,,0.00,12,LWC V2.00 B2112,2013-08-02 12:21:00,
2013-08-02 08:26:00,66.3,66.0,29.86,NW,318,0.0,0.0,99,0.00,,,0.00,12,LWC V2.00 B2112,2013-08-02 12:26:00,
2013-08-02 08:31:00,66.4,66.1,29.86,NW,319,0.0,0.0,99,0.00,,,0.00,14,LWC V2.00 B2112,2013-08-02 12:31:00,
2013-08-02 08:36:00,66.6,66.3,29.86,NW,319,0.0,0.0,99,0.00,,,0.00,14,LWC V2.00 B2112,2013-08-02 12:36:00,
2013-08-02 08:41:00,66.7,66.4,29.86,NW,319,0.0,0.0,99,0.00,,,0.00,16,LWC V2.00 B2112,2013-08-02 12:41:00,
2013-08-02 08:46:00,66.8,66.5,29.86,NW,318,0.0,0.0,99,0.00,,,0.00,18,LWC V2.00 B2112,2013-08-02 12:46:00,
2013-08-02 08:51:00,66.9,66.6,29.87,NW,319,0.0,0.0,99,0.00,,,0.00,18,LWC V2.00 B2112,2013-08-02 12:51:00,
2013-08-02 08:56:00,66.8,66.5,29.87,NW,319,0.0,0.0,99,0.00,,,0.00,19,LWC V2.00 B2112,2013-08-02 12:56:00,
2013-08-02 09:01:00,67.0,66.7,29.87,NW,319,0.0,0.0,99,0.00,,,0.00,21,LWC V2.00 B2112,2013-08-02 13:01:00,
2013-08-02 09:06:00,67.3,67.0,29.87,North,355,0.0,0.0,99,0.00,,,0.00,25,LWC V2.00 B2112,2013-08-02 13:06:00,
2013-08-02 09:11:00,67.4,67.1,29.87,North,355,0.0,0.0,99,0.00,,,0.00,23,LWC V2.00 B2112,2013-08-02 13:11:00,
2013-08-02 09:16:00,67.6,67.0,29.87,North,355,0.0,0.0,98,0.00,,,0.00,25,LWC V2.00 B2112,2013-08-02 13:16:00,
2013-08-02 09:21:00,67.9,67.6,29.87,North,355,0.0,0.0,99,0.00,,,0.00,25,LWC V2.00 B2112,2013-08-02 13:21:00,
2013-08-02 09:26:00,68.3,67.7,29.87,North,355,0.0,0.0,98,0.00,,,0.00,26,LWC V2.00 B2112,2013-08-02 13:26:00,
2013-08-02 09:31:00,68.5,67.6,29.87,North,355,0.0,0.0,97,0.00,,,0.00,28,LWC V2.00 B2112,2013-08-02 13:31:00,
2013-08-02 09:36:00,68.9,67.4,29.87,North,355,0.0,0.0,95,0.00,,,0.00,30,LWC V2.00 B2112,2013-08-02 13:36:00,
2013-08-02 09:41:00,69.2,67.1,29.87,North,355,0.0,0.0,93,0.00,,,0.00,32,LWC V2.00 B2112,2013-08-02 13:41:00,
2013-08-02 09:46:00,69.8,68.0,29.87,North,355,0.0,0.0,94,0.00,,,0.00,32,LWC V2.00 B2112,2013-08-02 13:46:00,
2013-08-02 09:51:00,70.3,68.5,29.88,North,355,0.0,0.0,94,0.00,,,0.00,32,LWC V2.00 B2112,2013-08-02 13:51:00,
2013-08-02 09:53:00,70.6,68.5,29.88,North,355,0.0,0.0,93,0.00,,,0.00,32,LWC V2.00 B2112,2013-08-02 13:53:00,
2013-08-02 09:58:00,71.0,67.3,29.88,North,355,0.0,0.0,88,0.00,,,0.00,33,LWC V2.00 B2112,2013-08-02 13:58:00,
2013-08-02 10:03:00,71.4,67.7,29.88,North,355,0.0,0.0,88,0.00,,,0.00,33,LWC V2.00 B2112,2013-08-02 14:03:00,
2013-08-02 10:08:00,71.9,68.1,29.88,North,355,0.0,0.0,88,0.00,,,0.00,33,LWC V2.00 B2112,2013-08-02 14:08:00,
2013-08-02 10:13:00,72.3,68.2,29.88,North,355,0.0,0.0,87,0.00,,,0.00,33,LWC V2.00 B2112,2013-08-02 14:13:00,
2013-08-02 10:18:00,72.5,68.4,29.88,North,355,0.0,0.0,87,0.00,,,0.00,33,LWC V2.00 B2112,2013-08-02 14:18:00,
2013-08-02 10:23:00,72.9,67.8,29.88,North,355,0.0,0.0,84,0.00,,,0.00,33,LWC V2.00 B2112,2013-08-02 14:23:00,
2013-08-02 10:28:00,73.2,68.4,29.88,NNW,330,0.0,0.0,85,0.00,,,0.00,33,LWC V2.00 B2112,2013-08-02 14:28:00,
2013-08-02 10:33:00,73.5,67.3,29.88,NW,317,0.0,0.0,81,0.00,,,0.00,33,LWC V2.00 B2112,2013-08-02 14:33:00,
2013-08-02 10:38:00,73.8,67.6,29.88,NW,317,0.0,0.0,81,0.00,,,0.00,33,LWC V2.00 B2112,2013-08-02 14:38:00,
2013-08-02 10:43:00,74.1,67.9,29.88,NW,317,0.0,0.0,81,0.00,,,0.00,35,LWC V2.00 B2112,2013-08-02 14:43:00,
2013-08-02 10:48:00,74.4,67.8,29.88,NW,317,0.0,0.0,80,0.00,,,0.00,35,LWC V2.00 B2112,2013-08-02 14:48:00,
2013-08-02 10:53:00,74.6,66.9,29.89,NW,317,0.0,0.0,77,0.00,,,0.00,35,LWC V2.00 B2112,2013-08-02 14:53:00,
2013-08-02 10:58:00,74.9,68.3,29.89,NW,317,0.0,0.0,80,0.00,,,0.00,35,LWC V2.00 B2112,2013-08-02 14:58:00,
2013-08-02 11:03:00,75.2,67.9,29.89,North,5,0.0,0.0,78,0.00,,,0.00,40,LWC V2.00 B2112,2013-08-02 15:03:00,
2013-08-02 11:08:00,75.4,66.5,29.89,North,5,0.0,0.0,74,0.00,,,0.00,11,LWC V2.00 B2112,2013-08-02 15:08:00,
2013-08-02 11:13:00,75.6,68.2,29.89,North,5,0.0,0.0,78,0.00,,,0.00,51,LWC V2.00 B2112,2013-08-02 15:13:00,
2013-08-02 11:18:00,75.7,68.0,29.89,North,5,0.0,0.0,77,0.00,,,0.00,46,LWC V2.00 B2112,2013-08-02 15:18:00,
2013-08-02 11:23:00,75.9,65.0,29.88,North,5,0.0,0.0,69,0.00,,,0.00,51,LWC V2.00 B2112,2013-08-02 15:23:00,
2013-08-02 11:28:00,76.2,67.7,29.88,North,5,0.0,0.0,75,0.00,,,0.00,37,LWC V2.00 B2112,2013-08-02 15:28:00,
2013-08-02 11:33:00,76.4,65.9,29.88,West,271,0.0,0.0,70,0.00,,,0.00,32,LWC V2.00 B2112,2013-08-02 15:33:00,
2013-08-02 11:38:00,76.5,67.2,29.88,West,269,0.0,0.0,73,0.00,,,0.00,83,LWC V2.00 B2112,2013-08-02 15:38:00,
2013-08-02 11:43:00,76.7,67.0,29.88,West,269,0.0,0.0,72,0.00,,,0.00,32,LWC V2.00 B2112,2013-08-02 15:43:00,
2013-08-02 11:48:00,76.8,66.7,29.88,West,269,0.0,0.0,71,0.00,,,0.00,51,LWC V2.00 B2112,2013-08-02 15:48:00,
2013-08-02 11:53:00,76.9,65.5,29.88,WSW,247,0.0,0.0,68,0.00,,,0.00,47,LWC V2.00 B2112,2013-08-02 15:53:00,
2013-08-02 11:58:00,77.2,67.5,29.88,WSW,247,0.0,0.0,72,0.00,,,0.00,47,LWC V2.00 B2112,2013-08-02 15:58:00,
2013-08-02 12:03:00,77.4,66.0,29.88,WSW,255,0.0,0.0,68,0.00,,,0.00,69,LWC V2.00 B2112,2013-08-02 16:03:00,
2013-08-02 12:08:00,77.7,67.1,29.88,WSW,255,0.0,0.0,70,0.00,,,0.00,51,LWC V2.00 B2112,2013-08-02 16:08:00,
2013-08-02 12:13:00,78.0,65.7,29.88,West,277,0.0,0.0,66,0.00,,,0.00,56,LWC V2.00 B2112,2013-08-02 16:13:00,
2013-08-02 12:18:00,78.2,65.4,29.88,West,264,0.0,0.0,65,0.00,,,0.00,47,LWC V2.00 B2112,2013-08-02 16:18:00,
2013-08-02 12:23:00,78.3,66.8,29.88,WNW,284,1.0,1.0,68,0.00,,,0.00,67,LWC V2.00 B2112,2013-08-02 16:23:00,
2013-08-02 12:28:00,78.5,66.2,29.88,NNW,340,0.0,0.0,66,0.00,,,0.00,67,LWC V2.00 B2112,2013-08-02 16:28:00,
2013-08-02 12:33:00,78.8,67.3,29.88,NNW,341,0.0,3.0,68,0.00,,,0.00,54,LWC V2.00 B2112,2013-08-02 16:33:00,
2013-08-02 12:38:00,79.1,64.9,29.88,North,5,0.0,1.0,62,0.00,,,0.00,58,LWC V2.00 B2112,2013-08-02 16:38:00,
2013-08-02 12:43:00,79.4,65.2,29.88,NW,311,0.0,2.0,62,0.00,,,0.00,63,LWC V2.00 B2112,2013-08-02 16:43:00,
2013-08-02 12:48:00,79.8,66.5,29.88,NW,320,1.0,2.0,64,0.00,,,0.00,58,LWC V2.00 B2112,2013-08-02 16:48:00,
2013-08-02 12:53:00,80.0,65.8,29.87,West,275,0.0,1.0,62,0.00,,,0.00,28,LWC V2.00 B2112,2013-08-02 16:53:00,
2013-08-02 12:58:00,79.9,65.2,29.88,SSE,164,0.0,0.0,61,0.00,,,0.00,388,LWC V2.00 B2112,2013-08-02 16:58:00,
2013-08-02 13:03:00,80.0,66.7,29.87,SSW,211,0.0,1.0,64,0.00,,,0.00,492,LWC V2.00 B2112,2013-08-02 17:03:00,
2013-08-02 13:08:00,80.3,66.5,29.87,SW,220,0.0,1.0,63,0.00,,,0.00,482,LWC V2.00 B2112,2013-08-02 17:08:00,
2013-08-02 13:13:00,80.6,67.3,29.87,SSW,201,0.0,1.0,64,0.00,,,0.00,151,LWC V2.00 B2112,2013-08-02 17:13:00,
2013-08-02 13:18:00,80.6,67.7,29.86,SSW,202,0.0,0.0,65,0.00,,,0.00,53,LWC V2.00 B2112,2013-08-02 17:18:00,
2013-08-02 13:23:00,80.5,65.3,29.86,West,261,0.0,1.0,60,0.00,,,0.00,26,LWC V2.00 B2112,2013-08-02 17:23:00,
2013-08-02 13:28:00,80.5,66.3,29.86,West,272,0.0,2.0,62,0.00,,,0.00,527,LWC V2.00 B2112,2013-08-02 17:28:00,
2013-08-02 13:33:00,80.9,66.6,29.87,WNW,295,0.0,1.0,62,0.00,,,0.00,533,LWC V2.00 B2112,2013-08-02 17:33:00,
2013-08-02 13:38:00,81.4,67.1,29.86,WNW,295,0.0,1.0,62,0.00,,,0.00,501,LWC V2.00 B2112,2013-08-02 17:38:00,
2013-08-02 13:43:00,82.1,66.3,29.87,WNW,303,0.0,1.0,59,0.00,,,0.00,492,LWC V2.00 B2112,2013-08-02 17:43:00,
2013-08-02 13:48:00,82.4,68.0,29.86,WNW,303,0.0,0.0,62,0.00,,,0.00,489,LWC V2.00 B2112,2013-08-02 17:48:00,
2013-08-02 13:53:00,82.7,66.9,29.86,WNW,303,1.0,2.0,59,0.00,,,0.00,476,LWC V2.00 B2112,2013-08-02 17:53:00,
2013-08-02 13:58:00,82.9,67.1,29.86,WNW,303,0.0,0.0,59,0.00,,,0.00,468,LWC V2.00 B2112,2013-08-02 17:58:00,
2013-08-02 14:03:00,83.0,65.7,29.86,NW,317,0.0,3.0,56,0.00,,,0.00,475,LWC V2.00 B2112,2013-08-02 18:03:00,
2013-08-02 14:08:00,83.2,66.4,29.86,NW,317,1.0,1.0,57,0.00,,,0.00,478,LWC V2.00 B2112,2013-08-02 18:08:00,
2013-08-02 14:11:00,83.4,65.5,29.86,NW,313,1.0,2.0,55,0.00,,,0.00,469,LWC V2.00 B2112,2013-08-02 18:11:00,
2013-08-02 14:16:00,83.6,67.2,29.86,NW,313,0.0,2.0,58,0.00,,,0.00,466,LWC V2.00 B2112,2013-08-02 18:16:00,
2013-08-02 14:21:00,83.7,66.8,29.86,NW,313,0.0,1.0,57,0.00,,,0.00,462,LWC V2.00 B2112,2013-08-02 18:21:00,
2013-08-02 14:26:00,83.7,66.8,29.86,West,281,0.0,2.0,57,0.00,,,0.00,462,LWC V2.00 B2112,2013-08-02 18:26:00,
2013-08-02 14:31:00,83.4,67.0,29.86,West,281,0.0,1.0,58,0.00,,,0.00,35,LWC V2.00 B2112,2013-08-02 18:31:00,
2013-08-02 14:36:00,83.1,67.3,29.86,West,281,0.0,1.0,59,0.00,,,0.00,56,LWC V2.00 B2112,2013-08-02 18:36:00,
2013-08-02 14:41:00,82.7,67.4,29.85,West,281,0.0,0.0,60,0.00,,,0.00,39,LWC V2.00 B2112,2013-08-02 18:41:00,
2013-08-02 14:46:00,82.2,67.9,29.85,West,279,0.0,2.0,62,0.00,,,0.00,146,LWC V2.00 B2112,2013-08-02 18:46:00,
2013-08-02 14:51:00,82.2,67.4,29.85,West,279,0.0,0.0,61,0.00,,,0.00,98,LWC V2.00 B2112,2013-08-02 18:51:00,
2013-08-02 14:56:00,82.4,66.6,29.85,WNW,298,2.0,2.0,59,0.00,,,0.00,83,LWC V2.00 B2112,2013-08-02 18:56:00,
2013-08-02 15:01:00,82.5,66.7,29.85,WNW,298,0.0,1.0,59,0.00,,,0.00,49,LWC V2.00 B2112,2013-08-02 19:01:00,
2013-08-02 15:06:00,82.4,66.1,29.85,WNW,298,0.0,1.0,58,0.00,,,0.00,77,LWC V2.00 B2112,2013-08-02 19:06:00,
2013-08-02 15:11:00,82.4,66.6,29.85,WNW,298,0.0,1.0,59,0.00,,,0.00,77,LWC V2.00 B2112,2013-08-02 19:11:00,
2013-08-02 15:16:00,82.6,65.3,29.85,NNE,19,0.0,1.0,56,0.00,,,0.00,97,LWC V2.00 B2112,2013-08-02 19:16:00,
2013-08-02 15:21:00,82.7,65.4,29.85,NNE,19,0.0,3.0,56,0.00,,,0.00,35,LWC V2.00 B2112,2013-08-02 19:21:00,
2013-08-02 15:26:00,82.7,66.9,29.85,NNE,20,0.0,1.0,59,0.00,,,0.00,46,LWC V2.00 B2112,2013-08-02 19:26:00,
2013-08-02 15:31:00,82.7,66.4,29.85,NNE,20,0.0,2.0,58,0.00,,,0.00,65,LWC V2.00 B2112,2013-08-02 19:31:00,
2013-08-02 15:36:00,82.9,64.5,29.85,NNE,20,2.0,2.0,54,0.00,,,0.00,65,LWC V2.00 B2112,2013-08-02 19:36:00,
2013-08-02 15:41:00,83.0,63.0,29.85,NNE,20,0.0,2.0,51,0.00,,,0.00,63,LWC V2.00 B2112,2013-08-02 19:41:00,
2013-08-02 15:46:00,83.2,63.7,29.85,NNE,20,1.0,1.0,52,0.00,,,0.00,62,LWC V2.00 B2112,2013-08-02 19:46:00,
2013-08-02 15:51:00,83.3,65.4,29.85,West,261,0.0,2.0,55,0.00,,,0.00,62,LWC V2.00 B2112,2013-08-02 19:51:00,
2013-08-02 15:56:00,83.3,62.7,29.85,West,279,0.0,3.0,50,0.00,,,0.00,21,LWC V2.00 B2112,2013-08-02 19:56:00,
2013-08-02 16:01:00,83.0,64.6,29.85,West,279,0.0,1.0,54,0.00,,,0.00,32,LWC V2.00 B2112,2013-08-02 20:01:00,
2013-08-02 16:06:00,82.8,64.4,29.85,WNW,285,0.0,0.0,54,0.00,,,0.00,62,LWC V2.00 B2112,2013-08-02 20:06:00,
2013-08-02 16:11:00,82.7,63.3,29.85,WNW,285,0.0,1.0,52,0.00,,,0.00,37,LWC V2.00 B2112,2013-08-02 20:11:00,
2013-08-02 16:16:00,82.4,62.4,29.84,WNW,285,0.0,1.0,51,0.00,,,0.00,53,LWC V2.00 B2112,2013-08-02 20:16:00,
2013-08-02 16:21:00,82.2,62.8,29.84,NNW,330,0.0,0.0,52,0.00,,,0.00,60,LWC V2.00 B2112,2013-08-02 20:21:00,
2013-08-02 16:26:00,82.1,63.2,29.86,NW,326,0.0,1.0,53,0.00,,,0.00,42,LWC V2.00 B2112,2013-08-02 20:26:00,
2013-08-02 16:31:00,81.8,63.5,29.85,NNW,333,0.0,2.0,54,0.00,,,0.00,49,LWC V2.00 B2112,2013-08-02 20:31:00,
2013-08-02 16:36:00,81.5,63.7,29.85,West,271,0.0,3.0,55,0.00,,,0.00,53,LWC V2.00 B2112,2013-08-02 20:36:00,
2013-08-02 16:41:00,81.3,63.6,29.85,West,267,0.0,0.0,55,0.00,,,0.00,35,LWC V2.00 B2112,2013-08-02 20:41:00,
2013-08-02 16:46:00,81.1,64.9,29.86,West,268,0.0,1.0,58,0.00,,,0.00,42,LWC V2.00 B2112,2013-08-02 20:46:00,
2013-08-02 16:51:00,80.8,63.6,29.85,NW,306,0.0,1.0,56,0.00,,,0.00,56,LWC V2.00 B2112,2013-08-02 20:51:00,
2013-08-02 16:56:00,80.7,64.5,29.85,WNW,286,0.0,1.0,58,0.00,,,0.00,79,LWC V2.00 B2112,2013-08-02 20:56:00,
2013-08-02 17:01:00,80.9,64.7,29.85,SW,232,2.0,2.0,58,0.00,,,0.00,26,LWC V2.00 B2112,2013-08-02 21:01:00,
2013-08-02 17:06:00,81.3,66.5,29.85,WNW,288,0.0,0.0,61,0.00,,,0.00,63,LWC V2.00 B2112,2013-08-02 21:06:00,
2013-08-02 17:11:00,81.5,66.2,29.85,WNW,288,1.0,1.0,60,0.00,,,0.00,19,LWC V2.00 B2112,2013-08-02 21:11:00,
2013-08-02 17:16:00,81.4,64.7,29.85,West,275,4.0,4.0,57,0.00,,,0.00,33,LWC V2.00 B2112,2013-08-02 21:16:00,
2013-08-02 17:21:00,81.2,64.5,29.85,West,275,0.0,1.0,57,0.00,,,0.00,32,LWC V2.00 B2112,2013-08-02 21:21:00,
2013-08-02 17:26:00,80.9,64.2,29.85,West,275,0.0,1.0,57,0.00,,,0.00,33,LWC V2.00 B2112,2013-08-02 21:26:00,
2013-08-02 17:31:00,80.6,64.4,29.85,West,275,2.0,2.0,58,0.00,,,0.00,26,LWC V2.00 B2112,2013-08-02 21:31:00,
2013-08-02 17:36:00,80.3,65.1,29.85,West,275,0.0,2.0,60,0.00,,,0.00,25,LWC V2.00 B2112,2013-08-02 21:36:00,
2013-08-02 17:41:00,80.2,64.1,29.85,WNW,282,0.0,3.0,58,0.00,,,0.00,28,LWC V2.00 B2112,2013-08-02 21:41:00,
2013-08-02 17:46:00,80.0,64.8,29.85,WNW,282,1.0,1.0,60,0.00,,,0.00,26,LWC V2.00 B2112,2013-08-02 21:46:00,
2013-08-02 17:51:00,79.8,65.1,29.85,WNW,282,0.0,1.0,61,0.00,,,0.00,28,LWC V2.00 B2112,2013-08-02 21:51:00,
2013-08-02 17:56:00,79.7,65.0,29.85,WNW,282,0.0,0.0,61,0.00,,,0.00,26,LWC V2.00 B2112,2013-08-02 21:56:00,
2013-08-02 18:01:00,79.6,64.9,29.85,WNW,282,1.0,1.0,61,0.00,,,0.00,30,LWC V2.00 B2112,2013-08-02 22:01:00,
2013-08-02 18:06:00,79.5,65.8,29.84,WNW,282,0.0,0.0,63,0.00,,,0.00,42,LWC V2.00 B2112,2013-08-02 22:06:00,
2013-08-02 18:11:00,79.4,65.2,29.84,WNW,282,0.0,0.0,62,0.00,,,0.00,33,LWC V2.00 B2112,2013-08-02 22:11:00,
2013-08-02 18:16:00,79.4,63.8,29.83,WNW,289,0.0,3.0,59,0.00,,,0.00,26,LWC V2.00 B2112,2013-08-02 22:16:00,
2013-08-02 18:21:00,79.5,65.3,29.83,WNW,289,0.0,1.0,62,0.00,,,0.00,32,LWC V2.00 B2112,2013-08-02 22:21:00,
2013-08-02 18:26:00,79.5,65.3,29.83,WNW,289,0.0,0.0,62,0.00,,,0.00,32,LWC V2.00 B2112,2013-08-02 22:26:00,
2013-08-02 18:31:00,79.5,65.3,29.82,NW,304,0.0,1.0,62,0.00,,,0.00,23,LWC V2.00 B2112,2013-08-02 22:31:00,
2013-08-02 18:36:00,79.4,66.1,29.82,NW,304,0.0,0.0,64,0.00,,,0.00,12,LWC V2.00 B2112,2013-08-02 22:36:00,
2013-08-02 18:41:00,79.3,66.5,29.82,NW,304,0.0,0.0,65,0.00,,,0.00,18,LWC V2.00 B2112,2013-08-02 22:41:00,
2013-08-02 18:46:00,79.1,65.9,29.83,NW,304,0.0,0.0,64,0.00,,,0.00,16,LWC V2.00 B2112,2013-08-02 22:46:00,
2013-08-02 18:51:00,78.9,65.7,29.83,NW,304,0.0,0.0,64,0.00,,,0.00,14,LWC V2.00 B2112,2013-08-02 22:51:00,
2013-08-02 18:56:00,78.8,65.1,29.83,NW,304,0.0,0.0,63,0.00,,,0.00,14,LWC V2.00 B2112,2013-08-02 22:56:00,
2013-08-02 19:01:00,78.6,65.8,29.83,NW,304,0.0,0.0,65,0.00,,,0.00,12,LWC V2.00 B2112,2013-08-02 23:01:00,
2013-08-02 19:06:00,78.5,65.3,29.84,NW,304,0.0,0.0,64,0.00,,,0.00,11,LWC V2.00 B2112,2013-08-02 23:06:00,
2013-08-02 19:11:00,78.3,65.1,29.84,NW,304,0.0,0.0,64,0.00,,,0.00,11,LWC V2.00 B2112,2013-08-02 23:11:00,
2013-08-02 19:16:00,78.2,65.4,29.84,WNW,302,0.0,0.0,65,0.00,,,0.00,7,LWC V2.00 B2112,2013-08-02 23:16:00,
2013-08-02 19:21:00,78.1,65.8,29.84,WNW,302,0.0,0.0,66,0.00,,,0.00,7,LWC V2.00 B2112,2013-08-02 23:21:00,
2013-08-02 19:26:00,78.0,65.7,29.85,WNW,302,0.0,0.0,66,0.00,,,0.00,0,LWC V2.00 B2112,2013-08-02 23:26:00,
2013-08-02 19:31:00,77.8,65.5,29.85,WNW,302,0.0,0.0,66,0.00,,,0.00,0,LWC V2.00 B2112,2013-08-02 23:31:00,
2013-08-02 19:36:00,77.7,66.3,29.85,WNW,302,0.0,0.0,68,0.00,,,0.00,0,LWC V2.00 B2112,2013-08-02 23:36:00,
2013-08-02 19:41:00,77.5,66.1,29.85,WNW,302,0.0,0.0,68,0.00,,,0.00,0,LWC V2.00 B2112,2013-08-02 23:41:00,
2013-08-02 19:46:00,77.4,66.0,29.85,WNW,302,0.0,0.0,68,0.00,,,0.00,5,LWC V2.00 B2112,2013-08-02 23:46:00,
2013-08-02 19:51:00,77.2,65.8,29.85,WNW,302,0.0,0.0,68,0.00,,,0.00,0,LWC V2.00 B2112,2013-08-02 23:51:00,
2013-08-02 19:56:00,77.1,66.1,29.85,WNW,302,0.0,0.0,69,0.00,,,0.00,0,LWC V2.00 B2112,2013-08-02 23:56:00,
2013-08-02 20:01:00,77.0,66.4,29.86,WNW,302,0.0,0.0,70,0.00,,,0.00,0,LWC V2.00 B2112,2013-08-03 00:01:00,
2013-08-02 20:06:00,76.8,66.3,29.85,WNW,302,0.0,0.0,70,0.00,,,0.00,0,LWC V2.00 B2112,2013-08-03 00:06:00,
2013-08-02 20:11:00,76.6,66.1,29.85,WNW,302,0.0,0.0,70,0.00,,,0.00,0,LWC V2.00 B2112,2013-08-03 00:11:00,
2013-08-02 20:16:00,76.4,66.3,29.85,WNW,302,0.0,0.0,71,0.00,,,0.00,0,LWC V2.00 B2112,2013-08-03 00:16:00,
2013-08-02 20:21:00,76.1,66.4,29.85,WNW,302,0.0,0.0,72,0.00,,,0.00,0,LWC V2.00 B2112,2013-08-03 00:21:00,
2013-08-02 20:26:00,75.8,66.1,29.86,WNW,302,0.0,0.0,72,0.00,,,0.00,0,LWC V2.00 B2112,2013-08-03 00:26:00,
2013-08-02 20:31:00,75.6,66.3,29.86,WNW,302,0.0,0.0,73,0.00,,,0.00,0,LWC V2.00 B2112,2013-08-03 00:31:00,
2013-08-02 20:36:00,75.4,66.1,29.86,WNW,302,0.0,0.0,73,0.00,,,0.00,0,LWC V2.00 B2112,2013-08-03 00:36:00,
2013-08-02 20:41:00,75.2,66.3,29.86,WNW,302,0.0,0.0,74,0.00,,,0.00,0,LWC V2.00 B2112,2013-08-03 00:41:00,
2013-08-02 20:46:00,75.1,66.2,29.86,WNW,302,0.0,0.0,74,0.00,,,0.00,0,LWC V2.00 B2112,2013-08-03 00:46:00,
2013-08-02 20:51:00,75.0,66.9,29.86,WNW,302,0.0,0.0,76,0.00,,,0.00,0,LWC V2.00 B2112,2013-08-03 00:51:00,
2013-08-02 20:56:00,74.9,67.2,29.86,WNW,302,0.0,0.0,77,0.00,,,0.00,0,LWC V2.00 B2112,2013-08-03 00:56:00,
2013-08-02 21:01:00,74.7,67.4,29.87,WNW,302,0.0,0.0,78,0.00,,,0.00,0,LWC V2.00 B2112,2013-08-03 01:01:00,
2013-08-02 21:06:00,74.5,67.2,29.86,WNW,302,0.0,0.0,78,0.00,,,0.00,0,LWC V2.00 B2112,2013-08-03 01:06:00,
2013-08-02 21:11:00,74.3,67.0,29.87,WNW,302,0.0,0.0,78,0.00,,,0.00,0,LWC V2.00 B2112,2013-08-03 01:11:00,
2013-08-02 21:16:00,74.1,67.2,29.87,WNW,302,0.0,0.0,79,0.00,,,0.00,0,LWC V2.00 B2112,2013-08-03 01:16:00,
2013-08-02 21:21:00,73.8,66.9,29.88,WNW,302,0.0,0.0,79,0.00,,,0.00,0,LWC V2.00 B2112,2013-08-03 01:21:00,
2013-08-02 21:26:00,73.6,66.7,29.88,WNW,302,0.0,0.0,79,0.00,,,0.00,0,LWC V2.00 B2112,2013-08-03 01:26:00,
2013-08-02 21:31:00,73.5,66.6,29.88,WNW,302,0.0,0.0,79,0.00,,,0.00,0,LWC V2.00 B2112,2013-08-03 01:31:00,
2013-08-02 21:36:00,73.3,66.7,29.88,WNW,302,0.0,0.0,80,0.00,,,0.00,0,LWC V2.00 B2112,2013-08-03 01:36:00,
2013-08-02 21:41:00,73.2,67.0,29.88,WNW,302,0.0,0.0,81,0.00,,,0.00,0,LWC V2.00 B2112,2013-08-03 01:41:00,
2013-08-02 21:46:00,73.1,66.9,29.88,WNW,302,0.0,0.0,81,0.00,,,0.00,0,LWC V2.00 B2112,2013-08-03 01:46:00,
2013-08-02 21:51:00,73.0,66.8,29.88,WNW,302,0.0,0.0,81,0.00,,,0.00,0,LWC V2.00 B2112,2013-08-03 01:51:00,
2013-08-02 21:56:00,72.8,67.0,29.89,WNW,302,0.0,0.0,82,0.00,,,0.00,0,LWC V2.00 B2112,2013-08-03 01:56:00,
2013-08-02 22:01:00,72.7,67.2,29.89,WNW,302,0.0,0.0,83,0.00,,,0.00,0,LWC V2.00 B2112,2013-08-03 02:01:00,
2013-08-02 22:06:00,72.5,67.0,29.89,WNW,302,0.0,0.0,83,0.00,,,0.00,0,LWC V2.00 B2112,2013-08-03 02:06:00,
2013-08-02 22:11:00,72.3,66.8,29.89,WNW,302,0.0,0.0,83,0.00,,,0.00,0,LWC V2.00 B2112,2013-08-03 02:11:00,
2013-08-02 22:16:00,72.1,66.6,29.89,WNW,302,0.0,0.0,83,0.00,,,0.00,0,LWC V2.00 B2112,2013-08-03 02:16:00,
2013-08-02 22:21:00,71.9,66.8,29.89,WNW,302,0.0,0.0,84,0.00,,,0.00,0,LWC V2.00 B2112,2013-08-03 02:21:00,
2013-08-02 22:26:00,71.7,66.6,29.89,WNW,302,0.0,0.0,84,0.00,,,0.00,0,LWC V2.00 B2112,2013-08-03 02:26:00,
2013-08-02 22:31:00,71.5,66.7,29.89,WNW,302,0.0,0.0,85,0.00,,,0.00,0,LWC V2.00 B2112,2013-08-03 02:31:00,
2013-08-02 22:36:00,71.4,66.6,29.89,WNW,302,0.0,0.0,85,0.00,,,0.00,0,LWC V2.00 B2112,2013-08-03 02:36:00,
2013-08-02 22:41:00,71.2,66.8,29.89,WNW,302,0.0,0.0,86,0.00,,,0.00,0,LWC V2.00 B2112,2013-08-03 02:41:00,
2013-08-02 22:46:00,71.0,66.6,29.89,WNW,302,0.0,0.0,86,0.00,,,0.00,0,LWC V2.00 B2112,2013-08-03 02:46:00,
2013-08-02 22:51:00,70.8,66.7,29.89,WNW,302,0.0,0.0,87,0.00,,,0.00,0,LWC V2.00 B2112,2013-08-03 02:51:00,
2013-08-02 22:56:00,70.6,66.5,29.89,WNW,302,0.0,0.0,87,0.00,,,0.00,0,LWC V2.00 B2112,2013-08-03 02:56:00,
2013-08-02 23:01:00,70.4,66.3,29.89,WNW,302,0.0,0.0,87,0.00,,,0.00,0,LWC V2.00 B2112,2013-08-03 03:01:00,
2013-08-02 23:06:00,70.2,66.1,29.89,WNW,302,0.0,0.0,87,0.00,,,0.00,0,LWC V2.00 B2112,2013-08-03 03:06:00,
2013-08-02 23:11:00,70.0,66.3,29.89,WNW,302,0.0,0.0,88,0.00,,,0.00,0,LWC V2.00 B2112,2013-08-03 03:11:00,
2013-08-02 23:16:00,69.9,66.2,29.89,WNW,302,0.0,0.0,88,0.00,,,0.00,0,LWC V2.00 B2112,2013-08-03 03:16:00,
2013-08-02 23:21:00,69.8,66.1,29.89,WNW,302,0.0,0.0,88,0.00,,,0.00,0,LWC V2.00 B2112,2013-08-03 03:21:00,
2013-08-02 23:26:00,69.7,66.0,29.89,WNW,302,0.0,0.0,88,0.00,,,0.00,0,LWC V2.00 B2112,2013-08-03 03:26:00,
2013-08-02 23:31:00,69.6,66.2,29.89,WNW,302,0.0,0.0,89,0.00,,,0.00,0,LWC V2.00 B2112,2013-08-03 03:31:00,
2013-08-02 23:36:00,69.5,66.1,29.89,WNW,302,0.0,0.0,89,0.00,,,0.00,0,LWC V2.00 B2112,2013-08-03 03:36:00,
2013-08-02 23:41:00,69.4,66.0,29.89,WNW,302,0.0,0.0,89,0.00,,,0.00,0,LWC V2.00 B2112,2013-08-03 03:41:00,
2013-08-02 23:46:00,69.3,65.9,29.89,WNW,302,0.0,0.0,89,0.00,,,0.00,0,LWC V2.00 B2112,2013-08-03 03:46:00,
2013-08-02 23:51:00,69.1,65.7,29.89,WNW,302,0.0,0.0,89,0.00,,,0.00,0,LWC V2.00 B2112,2013-08-03 03:51:00,
2013-08-02 23:56:00,69.0,65.6,29.89,WNW,302,0.0,0.0,89,0.00,,,0.00,0,LWC V2.00 B2112,2013-08-03 03:56:00,